Time;durP1;ratioP1;P1;durP2;ratioP2;P2;SDS_P1;SDS_P2;PMS_P1;PMS_P2;Temp;Humidity;BMP_temperature;BMP_pressure;BME280_temperature;BME280_humidity;BME280_pressure;Samples;Min_cycle;Max_cycle;Signal;HPM_P1;HPM_P2
2023/03/03 00:01:39;;;;;;;7.88;5.07;;;;;;;20.22;42.41;96980.94;10455704;28;20057;-47
2023/03/03 00:06:58;;;;;;;7.82;5.43;;;;;;;20.21;42.48;96982.03;10455540;28;20471;-47
2023/03/03 00:12:25;;;;;;;8.73;5.20;;;;;;;20.20;42.40;96988.59;10456111;28;20384;-48
2023/03/03 00:17:45;;;;;;;7.63;5.43;;;;;;;20.19;42.58;96997.81;10455995;28;20057;-48
2023/03/03 00:23:29;;;;;;;7.93;5.03;;;;;;;20.16;42.33;96985.72;10455982;28;20057;-49
2023/03/03 00:28:51;;;;;;;6.70;5.05;;;;;;;20.15;42.38;96992.28;10440260;28;20053;-48
2023/03/03 00:34:18;;;;;;;6.57;4.68;;;;;;;20.14;42.32;96990.66;10455236;28;20501;-48
2023/03/03 00:39:38;;;;;;;6.68;4.38;;;;;;;20.11;42.15;96986.69;10455503;28;20390;-49
2023/03/03 00:44:59;;;;;;;8.73;5.07;;;;;;;20.10;42.26;96987.81;10440609;28;20053;-48
2023/03/03 00:50:30;;;;;;;6.25;4.45;;;;;;;20.09;42.18;96985.41;10454372;28;20496;-49
2023/03/03 00:55:51;;;;;;;7.07;5.05;;;;;;;20.07;42.12;96984.94;10455984;28;20421;-50
2023/03/03 01:01:11;;;;;;;6.50;4.60;;;;;;;20.05;42.10;96992.59;10460849;28;20045;-48
2023/03/03 01:06:38;;;;;;;6.47;4.80;;;;;;;20.05;42.06;96995.28;10462367;28;20053;-47
2023/03/03 01:11:58;;;;;;;6.80;5.07;;;;;;;20.02;42.06;96985.94;10446946;28;20118;-47
2023/03/03 01:17:18;;;;;;;7.15;4.80;;;;;;;20.00;42.14;96981.97;10460364;28;20040;-47
2023/03/03 01:22:39;;;;;;;5.68;4.53;;;;;;;20.00;42.06;96980.03;10446926;28;20057;-49
2023/03/03 01:27:59;;;;;;;6.30;4.55;;;;;;;19.97;42.05;96975.28;10446729;28;20053;-46
2023/03/03 01:33:18;;;;;;;6.68;4.63;;;;;;;19.97;42.05;96969.06;10461375;28;20056;-48
2023/03/03 01:38:38;;;;;;;5.30;4.65;;;;;;;19.94;42.13;96971.31;10461347;28;20060;-47
2023/03/03 01:43:58;;;;;;;7.40;4.90;;;;;;;19.92;41.81;96956.53;10461023;28;20056;-47
2023/03/03 01:49:22;;;;;;;7.20;4.97;;;;;;;19.90;41.93;96954.16;10460660;28;20051;-47
2023/03/03 01:54:46;;;;;;;6.03;4.60;;;;;;;19.88;41.90;96955.59;10460414;28;20411;-46
2023/03/03 02:00:07;;;;;;;5.75;4.35;;;;;;;19.87;41.77;96957.47;10458881;28;20094;-49
2023/03/03 02:05:33;;;;;;;5.18;4.38;;;;;;;19.84;41.91;96955.44;10460402;28;20436;-56
2023/03/03 02:10:53;;;;;;;5.45;4.47;;;;;;;19.83;41.88;96958.47;10460346;28;20412;-55
2023/03/03 02:16:13;;;;;;;5.35;4.00;;;;;;;19.82;41.77;96963.06;10445024;28;20048;-56
2023/03/03 02:21:33;;;;;;;4.80;4.25;;;;;;;19.81;41.83;96955.28;10445089;28;20045;-56
2023/03/03 02:26:52;;;;;;;6.07;4.30;;;;;;;19.78;41.70;96959.44;10459824;28;20052;-56
2023/03/03 02:32:13;;;;;;;5.50;4.38;;;;;;;19.75;41.76;96957.38;10444387;28;20053;-55
2023/03/03 02:37:33;;;;;;;6.60;4.50;;;;;;;19.74;41.74;96955.78;10459465;28;20060;-56
2023/03/03 02:42:52;;;;;;;5.53;4.30;;;;;;;19.73;41.69;96944.16;10443630;28;20057;-56
2023/03/03 02:48:12;;;;;;;4.85;4.03;;;;;;;19.71;41.79;96940.97;10429139;28;20044;-56
2023/03/03 02:53:32;;;;;;;5.30;4.30;;;;;;;19.70;41.74;96944.00;10458434;28;20056;-56
2023/03/03 02:58:52;;;;;;;5.18;4.22;;;;;;;19.68;41.76;96943.50;10458614;28;20385;-56
2023/03/03 03:04:17;;;;;;;5.28;4.25;;;;;;;19.65;41.71;96946.88;10443213;28;20132;-56
2023/03/03 03:09:40;;;;;;;5.07;4.20;;;;;;;19.64;41.60;96951.47;10442913;28;20053;-56
2023/03/03 03:15:00;;;;;;;4.60;4.00;;;;;;;19.63;41.61;96951.78;10457238;28;20057;-56
2023/03/03 03:20:20;;;;;;;5.85;4.22;;;;;;;19.61;41.57;96956.72;10456748;28;20083;-55
2023/03/03 03:25:46;;;;;;;5.60;4.28;;;;;;;19.59;41.57;96959.75;10442418;28;20057;-56
2023/03/03 03:31:12;;;;;;;6.10;4.30;;;;;;;19.58;41.51;96960.06;10442124;28;20045;-56
2023/03/03 03:36:32;;;;;;;5.00;4.18;;;;;;;19.55;41.57;96970.41;10457522;28;20444;-56
2023/03/03 03:41:52;;;;;;;5.75;4.22;;;;;;;19.53;41.48;96956.41;10442189;28;20053;-56
2023/03/03 03:47:12;;;;;;;4.93;4.10;;;;;;;19.52;41.47;96954.84;10457086;28;20064;-56
2023/03/03 03:52:32;;;;;;;4.72;4.18;;;;;;;19.51;41.43;96958.63;10441888;28;20056;-56
2023/03/03 03:57:52;;;;;;;5.47;4.20;;;;;;;19.47;41.43;96949.59;10470181;28;20424;-55
2023/03/03 04:03:15;;;;;;;5.13;4.20;;;;;;;19.47;41.47;96946.09;10456084;28;20061;-56
2023/03/03 04:08:36;;;;;;;6.03;4.40;;;;;;;19.45;41.62;96949.13;10441220;28;20045;-56
2023/03/03 04:13:56;;;;;;;5.05;4.05;;;;;;;19.44;41.56;96949.44;10456426;28;20056;-56
2023/03/03 04:19:15;;;;;;;5.55;3.80;;;;;;;19.41;41.52;96937.34;10456404;28;20098;-56
2023/03/03 04:24:36;;;;;;;4.63;3.72;;;;;;;19.40;41.46;96929.56;10441587;28;20061;-56
2023/03/03 04:29:56;;;;;;;4.45;4.00;;;;;;;19.39;41.43;96933.41;10441250;28;20103;-56
2023/03/03 04:35:16;;;;;;;5.07;4.10;;;;;;;19.36;41.35;96951.03;10449102;28;20102;-55
2023/03/03 04:40:39;;;;;;;5.03;3.83;;;;;;;19.34;41.39;96956.75;10448744;28;20045;-56
2023/03/03 04:45:58;;;;;;;4.90;4.07;;;;;;;19.33;41.29;96952.47;10463597;28;20472;-55
2023/03/03 04:51:18;;;;;;;5.82;4.10;;;;;;;19.31;41.52;96953.91;10447552;28;20064;-56
2023/03/03 04:56:38;;;;;;;4.22;3.80;;;;;;;19.29;41.52;96951.50;10463124;28;20114;-56
2023/03/03 05:01:58;;;;;;;4.10;3.67;;;;;;;19.28;41.40;96957.22;10447985;28;20049;-56
2023/03/03 05:07:19;;;;;;;6.25;4.10;;;;;;;19.26;41.42;96956.75;10447999;28;20510;-56
2023/03/03 05:12:39;;;;;;;5.47;4.13;;;;;;;19.24;41.34;96970.56;10462514;28;20057;-56
2023/03/03 05:17:59;;;;;;;5.03;3.95;;;;;;;19.24;41.32;96967.09;10461817;28;20057;-56
2023/03/03 05:23:19;;;;;;;4.05;3.47;;;;;;;19.22;41.35;96966.59;10461795;28;20060;-56
2023/03/03 05:28:38;;;;;;;4.82;3.70;;;;;;;19.22;41.32;96967.41;10462113;28;20049;-55
2023/03/03 05:33:57;;;;;;;4.25;3.85;;;;;;;19.22;41.38;96972.78;10461632;28;20052;-56
2023/03/03 05:39:17;;;;;;;4.63;3.95;;;;;;;19.22;41.18;96977.41;10461610;28;20079;-55
2023/03/03 05:44:37;;;;;;;4.05;3.65;;;;;;;19.23;41.19;96987.91;10461070;28;20053;-55
2023/03/03 05:49:56;;;;;;;4.13;3.72;;;;;;;19.24;41.30;96980.59;10460204;28;20493;-56
2023/03/03 05:55:16;;;;;;;4.50;3.72;;;;;;;19.26;41.34;97005.38;10460252;28;20068;-56
2023/03/03 06:00:35;;;;;;;4.30;3.72;;;;;;;19.27;41.29;97017.78;10460551;28;20056;-56
2023/03/03 06:05:55;;;;;;;4.65;3.83;;;;;;;19.29;41.50;97010.16;10460179;28;20053;-56
2023/03/03 06:11:15;;;;;;;4.15;3.75;;;;;;;19.33;41.36;97016.50;10460021;28;20057;-56
2023/03/03 06:16:35;;;;;;;4.40;3.58;;;;;;;19.34;41.57;97018.88;10459851;28;20118;-56
2023/03/03 06:21:55;;;;;;;5.25;4.07;;;;;;;19.38;41.76;97023.66;10459916;28;20099;-56
2023/03/03 06:27:14;;;;;;;4.93;3.92;;;;;;;19.41;41.63;97026.50;10460138;28;20075;-55
2023/03/03 06:32:33;;;;;;;4.13;3.72;;;;;;;19.44;41.71;97036.66;10459199;28;20053;-56
2023/03/03 06:37:53;;;;;;;3.97;3.58;;;;;;;19.47;41.72;97044.16;10459074;28;20391;-56
2023/03/03 06:43:13;;;;;;;3.95;3.55;;;;;;;19.50;41.66;97053.53;10459246;28;20106;-56
2023/03/03 06:48:32;;;;;;;4.50;3.75;;;;;;;19.53;41.47;97063.72;10458458;28;20064;-56
2023/03/03 06:53:54;;;;;;;4.80;3.80;;;;;;;19.55;41.62;97067.69;10458364;28;20056;-56
2023/03/03 06:59:16;;;;;;;4.80;4.10;;;;;;;19.59;41.64;97077.88;10458644;28;20148;-56
2023/03/03 07:04:38;;;;;;;6.85;5.05;;;;;;;19.56;37.42;97085.50;10458443;28;20056;-56
2023/03/03 07:09:57;;;;;;;26.58;22.17;;;;;;;17.74;27.40;97086.25;10457913;28;20044;-56
2023/03/03 07:15:33;;;;;;;32.88;24.55;;;;;;;16.57;27.00;97100.97;10458030;28;20056;-56
2023/03/03 07:20:53;;;;;;;23.55;17.80;;;;;;;17.55;33.43;97093.69;10457561;28;20056;-56
2023/03/03 07:26:22;;;;;;;22.00;15.90;;;;;;;18.35;34.27;97099.38;10456827;28;20057;-56
2023/03/03 07:31:41;;;;;;;;;;;;;;;18.63;29.97;97102.69;10457473;28;20049;-56
2023/03/03 07:37:05;;;;;;;18.58;14.20;;;;;;;18.92;34.03;97098.72;10457279;28;19921;-56
2023/03/03 07:42:27;;;;;;;18.58;13.48;;;;;;;19.09;33.97;97108.75;10442344;28;20057;-56
2023/03/03 07:48:03;;;;;;;16.75;12.10;;;;;;;19.22;34.32;97109.75;10428702;28;20053;-56
2023/03/03 07:53:28;;;;;;;16.92;12.05;;;;;;;19.32;34.60;97118.34;10455262;28;20037;-56
2023/03/03 07:58:48;;;;;;;13.57;11.43;;;;;;;19.39;34.96;97119.81;10441597;28;20118;-56
2023/03/03 08:04:17;;;;;;;14.63;11.20;;;;;;;19.47;35.16;97110.91;10456963;28;20063;-56
2023/03/03 08:09:46;;;;;;;14.80;10.70;;;;;;;19.53;35.77;97102.34;10464670;28;20405;-57
2023/03/03 08:15:23;;;;;;;13.90;9.98;;;;;;;19.60;36.08;97106.47;10464586;28;20524;-56
2023/03/03 08:20:50;;;;;;;13.75;9.98;;;;;;;19.65;36.69;97119.84;10464935;28;20052;-56
2023/03/03 08:26:12;;;;;;;11.80;9.00;;;;;;;19.69;37.04;97109.97;10462296;28;20049;-56
2023/03/03 08:31:32;;;;;;;11.50;9.00;;;;;;;19.74;37.37;97109.88;10464079;28;20049;-56
2023/03/03 08:36:51;;;;;;;12.10;8.60;;;;;;;19.78;37.68;97113.53;10463918;28;20053;-56
2023/03/03 08:42:10;;;;;;;11.38;8.90;;;;;;;19.83;38.04;97126.84;10462996;28;20515;-56
2023/03/03 08:47:30;;;;;;;10.52;8.32;;;;;;;19.86;38.12;97115.44;10462667;28;20136;-55
2023/03/03 08:52:49;;;;;;;11.57;8.30;;;;;;;19.91;38.40;97128.75;10463372;28;20118;-57
2023/03/03 08:58:09;;;;;;;11.85;7.75;;;;;;;19.95;38.60;97135.16;10463027;28;20057;-57
2023/03/03 09:03:28;;;;;;;10.95;8.40;;;;;;;19.99;38.83;97139.91;10446981;28;20481;-57
2023/03/03 09:08:49;;;;;;;8.57;7.30;;;;;;;20.04;39.01;97142.47;10462475;28;20049;-56
2023/03/03 09:14:14;;;;;;;8.60;7.60;;;;;;;20.08;39.26;97140.72;10460164;28;20505;-56
2023/03/03 09:19:35;;;;;;;9.65;7.45;;;;;;;20.14;39.39;97139.44;10474863;28;20401;-56
2023/03/03 09:24:57;;;;;;;9.82;7.28;;;;;;;20.18;39.49;97142.28;10405879;28;20551;-56
2023/03/03 09:30:27;;;;;;;9.93;7.15;;;;;;;20.22;39.65;97145.94;10420108;28;20057;-56
2023/03/03 09:35:50;;;;;;;9.48;6.85;;;;;;;20.25;39.63;97148.81;10437694;28;20106;-56
2023/03/03 09:41:40;;;;;;;9.77;7.20;;;;;;;20.28;39.78;97131.13;10460738;28;20416;-56
2023/03/03 09:47:10;;;;;;;8.00;6.65;;;;;;;20.31;39.67;97139.41;10460384;28;20452;-55
2023/03/03 09:52:48;;;;;;;8.60;6.28;;;;;;;20.34;39.89;97146.88;10446014;28;20045;-55
2023/03/03 09:58:19;;;;;;;7.45;6.25;;;;;;;20.40;39.66;97138.59;10460773;28;20079;-55
2023/03/03 10:03:48;;;;;;;10.82;7.07;;;;;;;20.42;39.96;97139.06;10460533;28;20064;-54
2023/03/03 10:09:13;;;;;;;;;;;;;;;20.45;40.89;97135.75;10458634;28;20045;-55
2023/03/03 10:14:42;;;;;;;11.70;8.52;;;;;;;20.50;40.67;97149.06;10459434;28;19927;-55
2023/03/03 10:20:20;;;;;;;20.50;11.35;;;;;;;20.52;41.49;97153.06;10460147;28;20095;-52
2023/03/03 10:25:44;;;;;;;17.75;10.82;;;;;;;20.57;42.10;97157.50;10459821;28;20156;-53
2023/03/03 10:31:22;;;;;;;25.63;13.35;;;;;;;20.61;42.94;97155.78;10455508;28;20508;-53
2023/03/03 10:37:17;;;;;;;;;;;;;;;20.64;44.91;97149.72;10442419;28;20515;-55
2023/03/03 10:43:28;;;;;;;45.13;22.50;;;;;;;20.68;45.43;97147.97;10370358;28;19928;-52
2023/03/03 10:49:17;;;;;;;38.83;19.85;;;;;;;20.70;45.36;97140.31;10381293;28;20053;-54
2023/03/03 10:54:51;;;;;;;24.80;16.52;;;;;;;20.14;33.33;97136.72;10439242;28;20076;-53
2023/03/03 11:00:20;;;;;;;20.20;14.20;;;;;;;19.17;34.47;97138.50;10457566;28;20049;-55
2023/03/03 11:05:50;;;;;;;41.42;19.52;;;;;;;19.62;40.59;97142.06;10450811;28;20542;-55
2023/03/03 11:11:30;;;;;;;28.85;14.45;;;;;;;20.02;41.01;97147.41;10456516;28;20489;-55
2023/03/03 11:17:11;;;;;;;38.22;16.40;;;;;;;20.24;41.56;97147.22;10456311;28;20467;-56
2023/03/03 11:22:51;;;;;;;61.70;22.50;;;;;;;20.38;43.04;97140.84;10454467;28;20060;-54
2023/03/03 11:28:48;;;;;;;38.38;16.85;;;;;;;20.47;44.32;97144.31;10453530;28;20087;-53
2023/03/03 11:34:23;;;;;;;32.50;15.02;;;;;;;20.51;43.64;97132.53;10467883;28;20037;-54
2023/03/03 11:39:43;;;;;;;26.77;12.75;;;;;;;20.53;43.81;97127.59;10456844;28;20060;-55
2023/03/03 11:45:12;;;;;;;18.00;9.02;;;;;;;20.55;42.61;97129.97;10455359;28;20049;-54
2023/03/03 11:50:38;;;;;;;15.55;9.80;;;;;;;20.57;42.72;97133.16;10440736;28;20567;-53
2023/03/03 11:56:17;;;;;;;18.92;10.70;;;;;;;20.59;44.25;97120.13;10455723;28;20125;-54
2023/03/03 12:02:09;;;;;;;16.05;8.98;;;;;;;20.60;43.02;97110.91;10411519;28;20052;-57
2023/03/03 12:07:32;;;;;;;15.45;9.23;;;;;;;20.62;42.81;97114.06;10399676;28;20068;-57
2023/03/03 12:13:10;;;;;;;12.57;8.10;;;;;;;20.64;42.79;97109.13;10415282;28;20052;-55
2023/03/03 12:18:41;;;;;;;13.13;8.48;;;;;;;20.64;42.39;97106.41;10400404;28;20057;-58
2023/03/03 12:24:26;;;;;;;10.80;7.78;;;;;;;20.65;42.66;97102.59;10438452;28;20076;-59
2023/03/03 12:30:12;;;;;;;9.52;6.65;;;;;;;20.59;34.66;97108.47;10455315;28;20056;-58
2023/03/03 12:35:53;;;;;;;7.50;5.70;;;;;;;20.24;32.27;97093.09;10456726;28;20061;-57
2023/03/03 12:41:33;;;;;;;6.28;4.60;;;;;;;20.30;36.36;97096.44;10456016;28;20090;-61
2023/03/03 12:46:58;;;;;;;6.20;4.75;;;;;;;20.37;37.07;97085.94;10455993;28;20405;-59
2023/03/03 12:52:30;;;;;;;5.63;4.22;;;;;;;20.42;37.64;97090.38;10457804;28;20080;-61
2023/03/03 12:57:53;;;;;;;6.03;4.18;;;;;;;20.44;38.22;97075.38;10463307;28;20481;-61
2023/03/03 13:03:34;;;;;;;6.15;4.20;;;;;;;20.47;38.62;97082.88;10462091;28;20045;-56
2023/03/03 13:09:31;;;;;;;6.10;4.15;;;;;;;20.49;39.21;97080.63;10434061;28;20052;-55
2023/03/03 13:15:15;;;;;;;4.80;3.88;;;;;;;20.50;39.55;97076.81;10463138;28;20053;-55
2023/03/03 13:21:06;;;;;;;5.57;3.97;;;;;;;20.50;39.81;97076.00;10453535;28;20156;-55
2023/03/03 13:26:45;;;;;;;4.78;4.07;;;;;;;20.44;38.27;97072.69;10421046;28;20103;-54
2023/03/03 13:32:17;;;;;;;8.10;4.30;;;;;;;20.45;38.58;97068.09;10420676;28;20065;-54
2023/03/03 13:37:46;;;;;;;3.72;3.40;;;;;;;20.45;39.10;97065.38;10406707;28;20057;-54
2023/03/03 13:43:17;;;;;;;4.17;3.60;;;;;;;20.44;39.29;97059.16;10420387;28;20050;-54
2023/03/03 13:48:55;;;;;;;6.13;4.05;;;;;;;20.46;39.79;97062.31;10404970;28;20057;-54
2023/03/03 13:54:20;;;;;;;5.28;3.97;;;;;;;20.44;39.98;97052.94;10420434;28;20054;-54
2023/03/03 13:59:55;;;;;;;6.22;3.70;;;;;;;20.45;39.23;97057.25;10450227;28;20053;-55
2023/03/03 14:05:17;;;;;;;4.05;3.65;;;;;;;20.43;39.84;97054.09;10458065;28;20053;-54
2023/03/03 14:10:46;;;;;;;4.65;3.45;;;;;;;20.41;39.45;97053.63;10445314;28;20045;-54
2023/03/03 14:16:38;;;;;;;4.15;3.45;;;;;;;20.40;39.58;97044.69;10403677;28;20502;-54
2023/03/03 14:22:22;;;;;;;4.70;3.60;;;;;;;20.39;39.54;97043.09;10393445;28;20099;-54
2023/03/03 14:27:47;;;;;;;3.22;3.00;;;;;;;20.38;39.71;97038.00;10440283;28;20049;-55
2023/03/03 14:33:07;;;;;;;3.63;2.97;;;;;;;20.37;39.76;97041.84;10459327;28;20493;-54
2023/03/03 14:38:32;;;;;;;5.15;3.50;;;;;;;20.37;39.87;97047.25;10459319;28;20423;-56
2023/03/03 14:44:50;;;;;;;3.33;2.95;;;;;;;20.34;39.74;97038.66;10459185;28;20056;-56
2023/03/03 14:50:35;;;;;;;3.83;2.97;;;;;;;20.34;40.43;97049.47;10434472;28;20084;-56
2023/03/03 14:55:54;;;;;;;4.53;3.20;;;;;;;20.32;40.33;97048.22;10459272;28;20060;-54
2023/03/03 15:01:30;;;;;;;4.65;3.13;;;;;;;20.31;41.04;97043.94;10443625;28;20045;-53
2023/03/03 15:06:52;;;;;;;3.88;3.35;;;;;;;20.31;41.22;97044.72;10442770;28;20056;-53
2023/03/03 15:12:25;;;;;;;2.28;2.08;;;;;;;20.31;40.90;97049.34;10441911;28;20064;-55
2023/03/03 15:18:12;;;;;;;3.28;2.97;;;;;;;20.30;41.15;97042.31;10455087;28;20500;-54
2023/03/03 15:23:46;;;;;;;3.60;2.60;;;;;;;20.29;41.18;97052.38;10455248;28;20057;-54
2023/03/03 15:29:17;;;;;;;3.78;2.63;;;;;;;20.27;41.53;97043.00;10434948;28;20049;-52
2023/03/03 15:34:47;;;;;;;3.47;2.65;;;;;;;20.26;41.60;97042.19;10398491;28;20053;-54
2023/03/03 15:40:22;;;;;;;5.18;2.85;;;;;;;20.25;42.08;97040.59;10399290;28;20057;-52
2023/03/03 15:46:13;;;;;;;3.05;2.75;;;;;;;20.27;42.79;97032.16;10413591;28;20061;-51
2023/03/03 15:51:51;;;;;;;4.15;2.95;;;;;;;20.27;42.43;97043.78;10445499;28;20057;-53
2023/03/03 15:57:30;;;;;;;7.78;7.07;;;;;;;20.28;44.47;97036.44;10433320;28;20130;-52
2023/03/03 16:02:51;;;;;;;4.30;3.90;;;;;;;20.28;43.56;97034.53;10435062;28;20515;-53
2023/03/03 16:08:24;;;;;;;4.93;3.65;;;;;;;20.27;43.72;97038.38;10419384;28;20071;-54
2023/03/03 16:14:10;;;;;;;3.75;3.30;;;;;;;20.27;44.32;97041.06;10435842;28;20053;-55
2023/03/03 16:20:00;;;;;;;3.97;3.67;;;;;;;20.26;44.47;97042.19;10438433;28;20048;-49
2023/03/03 16:25:34;;;;;;;3.85;3.55;;;;;;;20.27;44.30;97049.19;10450555;28;20060;-55
2023/03/03 16:30:59;;;;;;;5.07;3.65;;;;;;;20.27;43.97;97051.91;10439393;28;20051;-52
2023/03/03 16:36:27;;;;;;;3.85;3.47;;;;;;;20.25;43.82;97056.84;10422738;28;20448;-51
2023/03/03 16:41:55;;;;;;;4.97;3.43;;;;;;;20.23;43.88;97042.84;10407446;28;20563;-61
2023/03/03 16:47:28;;;;;;;5.30;3.20;;;;;;;20.22;43.83;97052.06;10422957;28;20049;-63
2023/03/03 16:52:53;;;;;;;6.57;3.50;;;;;;;20.20;43.85;97065.13;10407253;28;20045;-58
2023/03/03 16:58:25;;;;;;;3.55;3.25;;;;;;;20.19;43.85;97074.34;10407201;28;20061;-58
2023/03/03 17:04:00;;;;;;;4.47;3.10;;;;;;;20.19;44.05;97074.34;10421839;28;20062;-59
2023/03/03 17:09:37;;;;;;;4.50;3.22;;;;;;;20.17;43.94;97082.00;10406970;28;20053;-56
2023/03/03 17:15:19;;;;;;;3.30;3.00;;;;;;;20.15;44.36;97087.72;10420819;28;20049;-55
2023/03/03 17:20:55;;;;;;;3.72;2.95;;;;;;;20.15;44.79;97097.75;10421207;28;20107;-55
2023/03/03 17:26:22;;;;;;;2.80;2.58;;;;;;;20.14;44.36;97093.44;10406070;28;20061;-56
2023/03/03 17:31:52;;;;;;;18.08;7.35;;;;;;;20.13;45.33;97102.66;10405221;28;20045;-54
2023/03/03 17:37:24;;;;;;;24.38;10.80;;;;;;;20.13;46.85;97089.13;10405155;28;20064;-54
2023/03/03 17:42:48;;;;;;;32.42;11.45;;;;;;;20.12;47.60;97106.50;10419906;28;20501;-55
2023/03/03 17:48:41;;;;;;;39.90;13.43;;;;;;;20.11;48.38;97097.59;10405286;28;20115;-54
2023/03/03 17:54:10;;;;;;;51.42;17.20;;;;;;;20.12;48.58;97098.38;10420108;28;20049;-56
2023/03/03 17:59:57;;;;;;;38.08;13.20;;;;;;;20.11;48.50;97091.38;10405438;28;20053;-56
2023/03/03 18:06:07;;;;;;;69.18;21.08;;;;;;;20.10;49.56;97098.69;10419203;28;20497;-56
2023/03/03 18:11:39;;;;;;;45.03;15.93;;;;;;;20.10;49.44;97097.91;10401752;28;20049;-57
2023/03/03 18:17:04;;;;;;;38.38;14.02;;;;;;;20.08;48.60;97094.72;10419073;28;20049;-57
2023/03/03 18:22:41;;;;;;;33.92;12.85;;;;;;;20.07;48.34;97102.06;10404276;28;20128;-56
2023/03/03 18:28:02;;;;;;;30.27;12.25;;;;;;;20.06;47.98;97096.97;10418842;28;20057;-57
2023/03/03 18:33:54;;;;;;;28.95;11.18;;;;;;;20.04;48.06;97104.59;10417925;28;20049;-55
2023/03/03 18:39:14;;;;;;;61.88;21.20;;;;;;;20.04;49.13;97115.41;10418287;28;20045;-55
2023/03/03 18:44:33;;;;;;;58.80;19.73;;;;;;;20.04;49.85;97104.59;10389487;28;20053;-56
2023/03/03 18:50:04;;;;;;;49.78;17.55;;;;;;;20.02;49.24;97115.72;10416386;28;20056;-56
2023/03/03 18:55:25;;;;;;;62.45;20.88;;;;;;;20.01;49.42;97126.88;10416885;28;20060;-58
2023/03/03 19:00:47;;;;;;;63.28;21.90;;;;;;;20.00;49.85;97119.88;10417057;28;20049;-59
2023/03/03 19:06:09;;;;;;;57.20;20.35;;;;;;;19.99;49.59;97113.66;10447301;28;20049;-55
2023/03/03 19:11:53;;;;;;;50.88;18.00;;;;;;;19.98;49.47;97105.88;10442996;28;20056;-57
2023/03/03 19:17:22;;;;;;;49.80;16.60;;;;;;;19.98;49.12;97108.59;10443401;28;20045;-55
2023/03/03 19:22:47;;;;;;;43.22;15.43;;;;;;;19.95;48.54;97107.28;10458173;28;20416;-60
2023/03/03 19:28:16;;;;;;;42.20;16.10;;;;;;;19.92;48.77;97116.84;10441997;28;20524;-56
2023/03/03 19:33:50;;;;;;;35.17;13.57;;;;;;;19.91;48.54;97123.34;10457738;28;20053;-55
2023/03/03 19:39:44;;;;;;;38.00;13.65;;;;;;;19.90;48.19;97129.91;10457440;28;20068;-53
2023/03/03 19:45:17;;;;;;;37.78;13.52;;;;;;;19.89;47.95;97124.81;10456434;28;20053;-54
2023/03/03 19:50:59;;;;;;;38.17;13.43;;;;;;;19.88;47.63;97137.53;10456126;28;20065;-54
2023/03/03 19:56:28;;;;;;;32.15;12.88;;;;;;;19.85;47.69;97132.75;10470288;28;20037;-57
2023/03/03 20:02:12;;;;;;;29.42;12.52;;;;;;;19.85;47.62;97140.06;10456484;28;20053;-54
2023/03/03 20:07:50;;;;;;;29.42;12.10;;;;;;;19.84;47.17;97143.91;10456617;28;20057;-53
2023/03/03 20:13:36;;;;;;;26.40;11.77;;;;;;;19.82;47.21;97140.72;10455927;28;20493;-52
2023/03/03 20:18:57;;;;;;;30.10;11.30;;;;;;;19.81;47.08;97141.81;10456656;28;20103;-55
2023/03/03 20:24:41;;;;;;;27.65;11.75;;;;;;;19.77;47.02;97144.34;10456342;28;20057;-56
2023/03/03 20:30:29;;;;;;;32.30;11.15;;;;;;;19.77;46.95;97151.69;10456023;28;20049;-55
2023/03/03 20:36:07;;;;;;;25.58;11.13;;;;;;;19.75;46.78;97144.66;10441548;28;20060;-56
2023/03/03 20:41:42;;;;;;;24.92;10.50;;;;;;;19.73;46.79;97138.00;10440572;28;20488;-56
2023/03/03 20:47:15;;;;;;;22.67;10.43;;;;;;;19.71;46.58;97134.78;10455274;28;20052;-56
2023/03/03 20:53:17;;;;;;;23.98;9.77;;;;;;;19.71;46.91;97137.50;10440054;28;20060;-56
2023/03/03 20:58:45;;;;;;;23.95;10.45;;;;;;;19.69;46.98;97145.13;10420819;28;20060;-56
2023/03/03 21:04:29;;;;;;;24.17;10.02;;;;;;;19.67;46.62;97142.72;10455821;28;20049;-56
2023/03/03 21:09:49;;;;;;;22.50;9.27;;;;;;;19.67;46.69;97136.53;10455452;28;20118;-56
2023/03/03 21:15:34;;;;;;;23.75;9.90;;;;;;;19.66;46.77;97133.03;10460217;28;20132;-56
2023/03/03 21:20:55;;;;;;;23.70;9.27;;;;;;;19.64;46.46;97132.56;10447673;28;20052;-56
2023/03/03 21:26:43;;;;;;;23.60;10.02;;;;;;;19.63;46.33;97132.88;10462333;28;20060;-56
2023/03/03 21:32:06;;;;;;;22.98;9.27;;;;;;;19.62;46.16;97132.09;10462159;28;20050;-56
2023/03/03 21:37:47;;;;;;;23.20;9.27;;;;;;;19.61;46.58;97140.50;10461229;28;20060;-59
2023/03/03 21:43:07;;;;;;;19.00;8.80;;;;;;;19.60;46.11;97130.78;10461871;28;20071;-56
2023/03/03 21:48:26;;;;;;;19.60;8.88;;;;;;;19.56;46.00;97128.72;10460963;28;20456;-55
2023/03/03 21:53:46;;;;;;;21.23;9.48;;;;;;;19.55;46.55;97121.72;10461313;28;20049;-55
2023/03/03 21:59:06;;;;;;;19.13;8.38;;;;;;;19.54;45.97;97122.84;10461173;28;20049;-55
2023/03/03 22:04:26;;;;;;;20.95;8.32;;;;;;;19.51;45.83;97109.16;10445948;28;20053;-55
2023/03/03 22:09:45;;;;;;;20.42;8.38;;;;;;;19.49;45.79;97109.47;10460866;28;20052;-55
2023/03/03 22:15:05;;;;;;;23.55;8.90;;;;;;;19.48;46.18;97107.91;10460051;28;20057;-55
2023/03/03 22:20:24;;;;;;;19.58;8.18;;;;;;;19.47;46.51;97109.00;10460321;28;20385;-55
2023/03/03 22:25:44;;;;;;;18.77;7.88;;;;;;;19.45;46.42;97111.22;10459960;28;20053;-55
2023/03/03 22:31:04;;;;;;;18.77;7.60;;;;;;;19.43;46.50;97105.34;10459677;28;20067;-55
2023/03/03 22:36:23;;;;;;;17.90;7.53;;;;;;;19.43;46.37;97110.75;10459480;28;20049;-55
2023/03/03 22:41:43;;;;;;;16.02;7.35;;;;;;;19.40;46.45;97097.84;10458600;28;20473;-54
2023/03/03 22:47:02;;;;;;;15.05;7.07;;;;;;;19.39;46.31;97100.91;10459256;28;20056;-55
2023/03/03 22:52:22;;;;;;;15.15;6.82;;;;;;;19.38;46.33;97096.59;10458387;28;20118;-55
2023/03/03 22:57:41;;;;;;;14.13;6.60;;;;;;;19.36;46.22;97083.41;10458970;28;20061;-55
2023/03/03 23:03:01;;;;;;;13.95;7.00;;;;;;;19.34;46.24;97089.09;10458215;28;20057;-55
2023/03/03 23:08:20;;;;;;;15.20;6.85;;;;;;;19.33;46.13;97082.13;10458341;28;20053;-55
2023/03/03 23:13:40;;;;;;;17.25;7.15;;;;;;;19.32;45.94;97079.72;10458280;28;20053;-55
2023/03/03 23:18:59;;;;;;;12.60;6.30;;;;;;;19.29;46.01;97064.97;10471283;28;20100;-55
2023/03/03 23:24:19;;;;;;;13.07;6.45;;;;;;;19.29;45.98;97070.38;10457072;28;20512;-55
2023/03/03 23:29:38;;;;;;;13.05;6.40;;;;;;;19.26;45.89;97078.31;10457073;28;20049;-55
2023/03/03 23:34:58;;;;;;;13.27;6.70;;;;;;;19.25;45.82;97068.59;10457178;28;20060;-55
2023/03/03 23:40:17;;;;;;;10.88;6.30;;;;;;;19.24;45.72;97072.41;10457299;28;20052;-54
2023/03/03 23:45:37;;;;;;;10.85;5.88;;;;;;;19.22;45.75;97074.63;10457533;28;20130;-55
2023/03/03 23:50:56;;;;;;;10.35;5.57;;;;;;;19.21;45.72;97067.63;10455920;28;20053;-54
2023/03/03 23:56:16;;;;;;;10.15;5.65;;;;;;;19.19;45.53;97057.16;10456888;28;20057;-55
